Time;durP1;ratioP1;P1;durP2;ratioP2;P2;SDS_P1;SDS_P2;PMS_P1;PMS_P2;Temp;Humidity;BMP_temperature;BMP_pressure;BME280_temperature;BME280_humidity;BME280_pressure;Samples;Min_cycle;Max_cycle;Signal;HPM_P1;HPM_P2
2022/04/05 00:00:31;;;;;;;4.25;3.85;;;;;;;5.73;63.79;98717.13;5013552;28;20022;-77
2022/04/05 00:02:57;;;;;;;4.47;4.07;;;;;;;5.93;62.85;98710.84;5015152;28;20037;-77
2022/04/05 00:05:23;;;;;;;4.10;3.72;;;;;;;6.13;62.92;98710.94;5013854;28;20030;-77
2022/04/05 00:07:50;;;;;;;5.57;4.47;;;;;;;5.99;62.28;98708.88;5013465;28;20399;-78
2022/04/05 00:10:16;;;;;;;4.47;3.72;;;;;;;5.92;62.53;98701.56;5013501;28;20383;-76
2022/04/05 00:12:46;;;;;;;4.80;4.38;;;;;;;6.02;63.13;98710.72;5013559;28;20034;-77
2022/04/05 00:15:13;;;;;;;4.07;3.67;;;;;;;6.12;62.38;98708.63;5014953;28;20127;-77
2022/04/05 00:17:39;;;;;;;4.53;3.90;;;;;;;6.22;62.84;98701.56;4997603;28;20052;-76
2022/04/05 00:20:07;;;;;;;4.38;3.78;;;;;;;6.17;62.88;98705.09;5013617;28;20467;-77
2022/04/05 00:22:33;;;;;;;5.13;4.45;;;;;;;6.10;62.54;98697.78;4997258;28;20095;-76
2022/04/05 00:24:58;;;;;;;5.57;4.78;;;;;;;6.06;62.97;98695.16;4997304;28;20048;-78
2022/04/05 00:27:24;;;;;;;7.03;4.35;;;;;;;6.12;62.65;98700.13;5014574;28;20026;-78
2022/04/05 00:29:51;;;;;;;4.50;4.10;;;;;;;6.14;63.10;98697.59;5013213;28;20033;-77
2022/04/05 00:32:17;;;;;;;4.68;4.05;;;;;;;6.14;62.81;98689.09;5013230;28;20030;-77
2022/04/05 00:34:43;;;;;;;5.57;4.55;;;;;;;6.10;63.17;98697.78;4996839;28;20048;-78
2022/04/05 00:37:08;;;;;;;5.50;4.57;;;;;;;6.19;63.19;98700.50;4996917;28;20113;-78
2022/04/05 00:39:36;;;;;;;7.30;4.45;;;;;;;6.27;62.37;98698.03;4996643;28;20030;-78
2022/04/05 00:42:02;;;;;;;5.00;4.38;;;;;;;6.10;63.54;98699.84;5013800;28;20037;-78
2022/04/05 00:44:33;;;;;;;4.82;4.40;;;;;;;6.20;63.64;98707.72;5013357;28;20034;-78
2022/04/05 00:47:01;;;;;;;4.50;4.10;;;;;;;6.32;63.46;98698.13;5013153;28;20033;-76
2022/04/05 00:49:30;;;;;;;6.10;4.57;;;;;;;6.08;64.24;98691.84;4995319;28;20403;-78
2022/04/05 00:51:57;;;;;;;5.50;4.93;;;;;;;6.18;64.28;98710.25;5012169;28;20061;-78
2022/04/05 00:54:25;;;;;;;5.13;4.63;;;;;;;6.05;64.71;98693.59;5013291;28;20025;-77
2022/04/05 00:56:52;;;;;;;5.60;5.03;;;;;;;5.99;64.16;98694.75;5013291;28;20026;-78
2022/04/05 00:59:28;;;;;;;5.53;4.45;;;;;;;6.16;64.61;98700.72;5013910;28;20035;-78
2022/04/05 01:01:54;;;;;;;6.70;5.25;;;;;;;6.23;65.43;98692.59;5014259;28;20426;-77
2022/04/05 01:04:21;;;;;;;6.32;5.70;;;;;;;6.13;64.46;98698.84;4996474;28;20391;-78
2022/04/05 01:06:48;;;;;;;5.55;5.00;;;;;;;6.19;65.41;98694.06;5015639;28;20030;-77
2022/04/05 01:09:15;;;;;;;6.97;5.72;;;;;;;6.32;64.71;98691.72;5019622;28;20030;-77
2022/04/05 01:11:41;;;;;;;6.80;5.40;;;;;;;6.21;65.32;98683.06;5016950;28;20030;-77
2022/04/05 01:14:07;;;;;;;6.55;5.72;;;;;;;6.24;63.89;98688.50;4997060;28;20037;-78
2022/04/05 01:16:36;;;;;;;6.85;5.35;;;;;;;6.17;64.32;98677.59;5013554;28;20030;-78
2022/04/05 01:19:02;;;;;;;6.28;5.25;;;;;;;6.22;64.91;98685.38;4996501;28;20029;-78
2022/04/05 01:21:29;;;;;;;7.55;5.30;;;;;;;6.18;64.96;98690.47;5012640;28;20036;-77
2022/04/05 01:24:11;;;;;;;5.97;5.35;;;;;;;6.26;64.81;98674.69;5013890;28;20026;-77
2022/04/05 01:26:46;;;;;;;6.50;5.63;;;;;;;6.19;65.12;98683.53;4996190;28;20065;-78
2022/04/05 01:29:27;;;;;;;5.82;5.22;;;;;;;6.23;65.17;98681.28;5013773;28;20471;-78
2022/04/05 01:31:58;;;;;;;5.95;5.35;;;;;;;6.31;65.56;98687.34;5012907;28;20033;-77
2022/04/05 01:34:27;;;;;;;6.95;6.05;;;;;;;6.33;64.99;98685.56;4996259;28;20391;-76
2022/04/05 01:36:55;;;;;;;6.70;5.55;;;;;;;6.15;65.84;98688.63;4996293;28;20137;-78
2022/04/05 01:39:24;;;;;;;5.82;5.22;;;;;;;6.09;66.25;98684.91;4979940;28;20061;-77
2022/04/05 01:42:06;;;;;;;6.38;5.75;;;;;;;6.20;65.22;98687.94;4996838;28;20037;-76
2022/04/05 01:44:33;;;;;;;6.55;5.18;;;;;;;6.21;65.11;98683.84;5012504;28;20479;-76
2022/04/05 01:47:18;;;;;;;6.45;5.20;;;;;;;6.34;64.88;98680.69;5016180;28;20475;-78
2022/04/05 01:49:45;;;;;;;6.45;5.18;;;;;;;6.40;64.96;98681.56;5017182;28;20114;-77
2022/04/05 01:52:12;;;;;;;5.72;5.05;;;;;;;6.36;65.55;98689.47;5017538;28;20034;-76
2022/04/05 01:54:39;;;;;;;7.32;5.55;;;;;;;6.27;64.86;98675.44;5018230;28;20036;-77
2022/04/05 01:57:07;;;;;;;6.65;4.88;;;;;;;6.31;66.17;98681.69;4999515;28;20387;-77
2022/04/05 01:59:35;;;;;;;6.50;5.03;;;;;;;6.39;65.93;98672.31;4999723;28;20116;-77
2022/04/05 02:02:10;;;;;;;5.03;4.63;;;;;;;6.38;65.46;98678.44;4983568;28;20034;-79
2022/04/05 02:04:37;;;;;;;5.07;4.57;;;;;;;6.51;65.63;98674.00;4999483;28;20142;-76
2022/04/05 02:07:10;;;;;;;5.53;4.95;;;;;;;6.38;65.71;98682.06;4999710;28;20034;-77
2022/04/05 02:09:37;;;;;;;5.20;4.70;;;;;;;6.26;65.61;98668.25;4999522;28;20041;-77
2022/04/05 02:12:04;;;;;;;5.18;4.65;;;;;;;6.25;66.06;98678.78;5015836;28;20037;-78
2022/04/05 02:14:31;;;;;;;6.75;4.80;;;;;;;6.31;65.71;98674.00;4999490;28;20030;-77
2022/04/05 02:16:57;;;;;;;4.72;4.22;;;;;;;6.41;66.01;98661.25;5017331;28;20033;-77
2022/04/05 02:19:24;;;;;;;5.00;4.50;;;;;;;6.43;66.40;98661.56;5015586;28;20108;-77
2022/04/05 02:21:51;;;;;;;5.57;4.47;;;;;;;6.34;65.92;98667.34;4999264;28;20057;-77
2022/04/05 02:24:16;;;;;;;4.18;3.78;;;;;;;6.39;65.80;98657.38;5014985;28;20045;-77
2022/04/05 02:26:41;;;;;;;4.90;4.40;;;;;;;6.44;65.63;98651.03;4998632;28;20454;-77
2022/04/05 02:29:07;;;;;;;5.18;4.25;;;;;;;6.39;66.03;98646.06;5015018;28;20042;-78
2022/04/05 02:31:33;;;;;;;6.28;4.32;;;;;;;6.28;66.04;98646.69;5017051;28;20113;-78
2022/04/05 02:33:59;;;;;;;5.32;4.78;;;;;;;6.32;66.43;98633.13;5016776;28;20057;-78
2022/04/05 02:36:26;;;;;;;5.20;4.15;;;;;;;6.30;66.86;98657.50;5014795;28;20456;-78
2022/04/05 02:38:52;;;;;;;6.45;4.72;;;;;;;6.30;66.72;98652.63;4998886;28;20029;-77
2022/04/05 02:41:18;;;;;;;5.28;4.38;;;;;;;6.38;66.80;98656.59;5015356;28;20029;-77
2022/04/05 02:43:44;;;;;;;4.40;4.00;;;;;;;6.22;66.28;98659.16;5015554;28;20474;-76
2022/04/05 02:46:12;;;;;;;4.40;4.00;;;;;;;6.38;65.94;98653.78;5016484;28;20058;-77
2022/04/05 02:48:48;;;;;;;5.38;4.20;;;;;;;6.34;65.82;98661.69;5014723;28;20038;-78
2022/04/05 02:51:18;;;;;;;4.38;3.97;;;;;;;6.31;66.92;98668.34;4999843;28;20026;-78
2022/04/05 02:53:44;;;;;;;4.90;4.32;;;;;;;6.27;67.29;98652.81;4998957;28;20171;-77
2022/04/05 02:56:11;;;;;;;5.10;4.47;;;;;;;6.31;67.28;98656.25;4998560;28;20423;-78
2022/04/05 02:58:38;;;;;;;4.65;4.25;;;;;;;6.30;67.17;98652.63;4998412;28;20030;-78
2022/04/05 03:01:04;;;;;;;5.68;4.78;;;;;;;6.26;66.68;98662.59;5015772;28;20045;-77
2022/04/05 03:03:32;;;;;;;4.82;3.85;;;;;;;6.27;67.32;98664.13;4998290;28;20391;-77
2022/04/05 03:05:59;;;;;;;5.63;4.15;;;;;;;6.37;66.50;98665.56;5011642;28;20475;-78
2022/04/05 03:08:25;;;;;;;4.65;4.25;;;;;;;6.36;66.43;98664.03;4998612;28;20034;-75
2022/04/05 03:10:53;;;;;;;6.05;4.00;;;;;;;6.36;66.62;98659.16;5015921;28;20399;-78
2022/04/05 03:13:19;;;;;;;5.25;4.45;;;;;;;6.45;66.85;98647.72;4998520;28;20117;-78
2022/04/05 03:15:45;;;;;;;5.07;4.50;;;;;;;6.45;65.71;98661.09;5014743;28;20512;-78
2022/04/05 03:18:11;;;;;;;6.63;5.05;;;;;;;6.34;66.27;98658.06;5014314;28;20030;-79
2022/04/05 03:20:37;;;;;;;4.85;4.45;;;;;;;6.35;67.08;98659.63;5014492;28;20454;-78
2022/04/05 03:23:04;;;;;;;5.20;3.97;;;;;;;6.32;66.88;98663.44;5014946;28;20068;-77
2022/04/05 03:25:44;;;;;;;4.45;4.05;;;;;;;6.42;66.05;98662.03;5016475;28;20032;-77
2022/04/05 03:28:10;;;;;;;5.15;4.63;;;;;;;6.39;66.08;98651.72;5016554;28;20034;-75
2022/04/05 03:30:37;;;;;;;5.35;4.85;;;;;;;6.34;66.71;98658.06;5029107;28;20025;-77
2022/04/05 03:33:02;;;;;;;5.75;4.60;;;;;;;6.41;66.34;98652.78;5017815;28;20021;-78
2022/04/05 03:35:28;;;;;;;6.45;5.00;;;;;;;6.29;66.20;98653.91;5019907;28;20046;-78
2022/04/05 03:37:54;;;;;;;5.30;4.63;;;;;;;6.38;66.42;98650.94;5036725;28;20025;-77
2022/04/05 03:40:20;;;;;;;5.45;4.95;;;;;;;6.33;66.83;98640.34;5026617;28;20094;-75
2022/04/05 03:42:46;;;;;;;6.78;5.10;;;;;;;6.38;65.98;98653.00;5011315;28;20030;-77
2022/04/05 03:45:14;;;;;;;5.47;4.25;;;;;;;6.35;65.98;98651.16;5010658;28;20038;-78
2022/04/05 03:47:40;;;;;;;5.35;4.60;;;;;;;6.39;66.28;98649.69;4999335;28;20061;-76
2022/04/05 03:50:08;;;;;;;5.55;4.88;;;;;;;6.35;66.56;98645.50;5014581;28;20553;-77
2022/04/05 03:52:33;;;;;;;5.38;4.82;;;;;;;6.48;66.53;98643.13;5015302;28;20033;-77
2022/04/05 03:54:59;;;;;;;5.03;4.40;;;;;;;6.37;67.15;98657.09;4998046;28;20459;-78
2022/04/05 03:57:24;;;;;;;4.68;4.15;;;;;;;6.30;66.92;98641.31;5014317;28;20430;-75
2022/04/05 03:59:50;;;;;;;5.93;4.57;;;;;;;6.47;67.13;98653.66;5013967;28;20045;-78
2022/04/05 04:02:17;;;;;;;4.47;4.05;;;;;;;6.35;67.80;98645.50;4997488;28;20034;-77
2022/04/05 04:04:42;;;;;;;5.00;4.45;;;;;;;6.25;67.54;98658.19;5015185;28;20040;-77
2022/04/05 04:07:09;;;;;;;4.95;4.45;;;;;;;6.40;67.85;98664.59;5013725;28;20029;-77
2022/04/05 04:09:36;;;;;;;7.03;5.18;;;;;;;6.48;67.39;98640.28;4997729;28;20030;-76
2022/04/05 04:12:10;;;;;;;4.68;4.28;;;;;;;6.43;67.99;98652.28;5015046;28;20030;-77
2022/04/05 04:14:36;;;;;;;5.53;4.72;;;;;;;6.47;68.12;98655.69;5030204;28;20113;-77
2022/04/05 04:17:02;;;;;;;5.10;4.60;;;;;;;6.40;67.26;98659.72;5014418;28;20042;-78
2022/04/05 04:19:29;;;;;;;6.55;4.95;;;;;;;6.38;67.94;98661.47;5014729;28;20025;-78
2022/04/05 04:21:56;;;;;;;5.22;4.72;;;;;;;6.57;67.89;98662.78;5014481;28;20116;-78
2022/04/05 04:24:21;;;;;;;5.55;4.45;;;;;;;6.39;68.51;98663.81;5013800;28;20390;-77
2022/04/05 04:26:48;;;;;;;5.88;4.13;;;;;;;6.31;69.52;98671.16;5014900;28;20032;-76
2022/04/05 04:29:14;;;;;;;6.07;4.45;;;;;;;6.14;70.24;98669.31;4999109;28;20037;-77
2022/04/05 04:31:41;;;;;;;5.72;4.50;;;;;;;6.14;70.41;98672.16;4999651;28;20030;-78
2022/04/05 04:34:08;;;;;;;5.03;4.50;;;;;;;6.02;71.31;98680.44;4999546;28;20045;-78
2022/04/05 04:36:33;;;;;;;5.95;4.50;;;;;;;6.24;71.10;98679.25;5015006;28;20416;-78
2022/04/05 04:39:07;;;;;;;5.20;4.70;;;;;;;6.17;71.39;98674.00;5015138;28;20467;-77
2022/04/05 04:41:33;;;;;;;6.03;4.65;;;;;;;5.97;71.79;98646.44;5014902;28;20057;-76
2022/04/05 04:43:59;;;;;;;5.72;4.82;;;;;;;6.01;72.53;98678.91;5015252;28;20057;-78
2022/04/05 04:46:26;;;;;;;6.18;5.47;;;;;;;6.01;72.40;98678.91;5000225;28;20030;-77
2022/04/05 04:48:54;;;;;;;7.28;5.05;;;;;;;5.95;73.42;98680.06;5017341;28;20042;-76
2022/04/05 04:51:28;;;;;;;6.13;5.35;;;;;;;5.88;74.36;98683.25;4998590;28;20030;-77
2022/04/05 04:53:54;;;;;;;6.18;5.50;;;;;;;5.94;72.96;98675.66;5000008;28;20033;-77
2022/04/05 04:56:20;;;;;;;6.82;5.55;;;;;;;6.03;73.51;98681.22;5016397;28;20030;-76
2022/04/05 04:58:45;;;;;;;7.90;5.78;;;;;;;5.99;73.03;98683.47;5018632;28;20026;-75
2022/04/05 05:01:10;;;;;;;7.10;6.05;;;;;;;5.90;74.00;98683.56;5008504;28;20048;-80
2022/04/05 05:03:39;;;;;;;8.52;6.40;;;;;;;5.97;73.39;98695.25;5018332;28;20036;-82
2022/04/05 05:06:12;;;;;;;9.32;6.43;;;;;;;6.02;73.79;98685.31;5035207;28;20064;-82
2022/04/05 05:08:38;;;;;;;8.77;6.50;;;;;;;6.14;73.30;98687.06;5019301;28;20040;-81
2022/04/05 05:11:05;;;;;;;6.22;5.55;;;;;;;6.17;73.09;98676.84;5036177;28;20084;-82
2022/04/05 05:13:32;;;;;;;7.38;5.30;;;;;;;6.18;73.21;98701.78;5037388;28;20024;-86
2022/04/05 05:15:59;;;;;;;6.60;5.20;;;;;;;6.07;73.67;98702.34;5036232;28;20061;-79
2022/04/05 05:18:26;;;;;;;7.78;5.40;;;;;;;6.07;73.54;98696.69;5020095;28;20018;-84
2022/04/05 05:20:52;;;;;;;7.13;6.07;;;;;;;6.13;74.19;98698.84;5037701;28;20078;-84
2022/04/05 05:23:18;;;;;;;7.45;6.00;;;;;;;6.20;73.56;98699.25;5036733;28;20113;-83
2022/04/05 05:25:47;;;;;;;7.45;5.35;;;;;;;6.28;73.06;98696.78;5037531;28;20013;-84
2022/04/05 05:28:14;;;;;;;6.97;5.93;;;;;;;6.46;73.74;98705.81;5024629;28;20018;-82
2022/04/05 05:30:39;;;;;;;6.78;5.53;;;;;;;6.31;73.54;98702.25;5040458;28;20097;-85
2022/04/05 05:33:06;;;;;;;6.82;4.97;;;;;;;6.24;74.18;98704.69;5023865;28;20041;-83
2022/04/05 05:35:34;;;;;;;7.22;5.53;;;;;;;6.16;74.44;98701.50;5040413;28;20057;-85
2022/04/05 05:38:00;;;;;;;8.50;5.20;;;;;;;6.26;74.59;98711.44;5035689;28;20033;-85
2022/04/05 05:40:40;;;;;;;7.47;5.22;;;;;;;6.19;76.06;98705.38;5012831;28;20044;-86
2022/04/05 05:43:07;;;;;;;7.05;5.63;;;;;;;6.24;75.06;98721.66;5025723;28;20030;-85
2022/04/05 05:45:35;;;;;;;7.57;5.00;;;;;;;6.24;74.79;98721.66;5020892;28;20088;-85
2022/04/05 05:48:02;;;;;;;7.23;6.07;;;;;;;6.29;75.42;98726.63;4963066;28;1218227;-86
2022/04/05 05:50:28;;;;;;;7.20;5.25;;;;;;;6.24;76.06;98739.41;5039547;28;20056;-88
2022/04/05 05:52:59;;;;;;;6.90;5.57;;;;;;;6.19;75.52;98733.63;5023515;28;20093;-85
2022/04/05 05:55:24;;;;;;;7.80;5.15;;;;;;;6.24;75.71;98736.56;5007039;28;20029;-86
2022/04/05 05:57:50;;;;;;;6.45;5.22;;;;;;;6.24;75.59;98744.28;5007020;28;20055;-86
2022/04/05 06:00:21;;;;;;;9.63;5.28;;;;;;;6.21;75.98;98736.78;5018782;28;20087;-86
2022/04/05 06:02:55;;;;;;;13.50;6.80;;;;;;;6.29;75.86;98737.94;5020118;28;20487;-86
2022/04/05 06:05:23;;;;;;;8.77;5.32;;;;;;;6.36;75.98;98740.38;5014115;28;20090;-87
2022/04/05 06:07:50;;;;;;;6.80;4.97;;;;;;;6.45;75.52;98746.69;5014710;28;20034;-85
2022/04/05 06:10:37;;;;;;;6.05;4.60;;;;;;;6.41;75.10;98739.69;5027739;28;20030;-84
2022/04/05 06:13:02;;;;;;;7.85;4.10;;;;;;;6.55;75.52;98755.84;5026830;28;20394;-87
2022/04/05 06:15:29;;;;;;;6.25;4.00;;;;;;;6.51;74.39;98747.53;5032365;28;20453;-88
2022/04/05 06:18:11;;;;;;;6.60;4.00;;;;;;;6.70;74.82;98758.66;5011651;28;20113;-84
2022/04/05 06:20:36;;;;;;;3.70;3.28;;;;;;;6.72;75.28;98751.22;5009749;28;20025;-86
2022/04/05 06:23:05;;;;;;;4.82;3.10;;;;;;;6.93;73.98;98760.53;5026735;28;20053;-82
2022/04/05 06:25:37;;;;;;;5.32;3.55;;;;;;;6.79;73.82;98756.50;5002900;28;20145;-84
2022/04/05 06:28:06;;;;;;;7.18;3.50;;;;;;;6.94;73.78;98762.13;5004690;28;20018;-83
2022/04/05 06:30:33;;;;;;;5.13;3.40;;;;;;;7.05;73.68;98765.13;5025128;28;20060;-79
2022/04/05 06:33:15;;;;;;;9.75;4.35;;;;;;;6.93;73.12;98744.34;5019671;28;20041;-82
2022/04/05 06:35:45;;;;;;;4.68;3.17;;;;;;;7.03;73.44;98773.31;5001882;28;20030;-80
2022/04/05 06:38:17;;;;;;;6.25;3.33;;;;;;;7.15;73.43;98775.03;5016577;28;20033;-82
2022/04/05 06:40:43;;;;;;;6.45;3.35;;;;;;;7.07;73.17;98767.44;5019949;28;20420;-80
2022/04/05 06:43:11;;;;;;;4.88;3.13;;;;;;;7.17;72.48;98772.47;5000190;28;20022;-79
2022/04/05 06:45:37;;;;;;;3.78;3.38;;;;;;;7.13;73.20;98782.44;4999682;28;20521;-81
2022/04/05 06:48:06;;;;;;;5.28;3.70;;;;;;;7.20;73.04;98784.88;5000721;28;20021;-80
2022/04/05 06:50:32;;;;;;;4.40;2.90;;;;;;;7.11;72.67;98776.50;5015858;28;20037;-83
2022/04/05 06:53:00;;;;;;;5.47;2.80;;;;;;;7.07;73.84;98784.41;5003404;28;20033;-81
2022/04/05 06:55:27;;;;;;;4.35;3.08;;;;;;;7.11;73.89;98787.81;5004400;28;20045;-83
2022/04/05 06:57:52;;;;;;;3.33;2.75;;;;;;;7.12;74.37;98784.50;5009887;28;20030;-79
2022/04/05 07:00:22;;;;;;;4.28;3.53;;;;;;;7.10;73.98;98783.44;5010517;28;20044;-83
2022/04/05 07:02:53;;;;;;;3.80;3.35;;;;;;;7.20;73.49;98791.28;5000094;28;20072;-84
2022/04/05 07:05:20;;;;;;;3.90;3.20;;;;;;;7.24;73.46;98783.41;4983697;28;20080;-81
2022/04/05 07:07:45;;;;;;;4.78;3.50;;;;;;;7.32;73.42;98784.53;4979002;28;20145;-84
2022/04/05 07:10:18;;;;;;;7.03;4.32;;;;;;;7.37;72.73;98800.03;4996982;28;20141;-76
2022/04/05 07:12:48;;;;;;;4.72;3.03;;;;;;;7.28;72.56;98774.69;4996936;28;20073;-82
2022/04/05 07:15:14;;;;;;;4.15;2.95;;;;;;;7.37;72.80;98803.66;4995559;28;20101;-82
2022/04/05 07:17:43;;;;;;;5.22;3.00;;;;;;;7.42;72.66;98798.53;4997570;28;20152;-82
2022/04/05 07:20:10;;;;;;;6.15;3.15;;;;;;;7.43;72.77;98805.78;5012615;28;20053;-84
2022/04/05 07:22:43;;;;;;;3.75;3.05;;;;;;;7.38;72.49;98798.75;5006609;28;20107;-84
2022/04/05 07:25:10;;;;;;;6.05;3.40;;;;;;;7.29;73.66;98807.41;5002217;28;20539;-81
2022/04/05 07:27:38;;;;;;;3.60;3.10;;;;;;;7.29;73.36;98811.00;5015117;28;20025;-84
2022/04/05 07:30:05;;;;;;;4.60;3.30;;;;;;;7.34;73.09;98818.81;5015884;28;20042;-83
2022/04/05 07:32:42;;;;;;;3.38;2.67;;;;;;;7.36;72.66;98810.59;5018898;28;20112;-86
2022/04/05 07:35:08;;;;;;;5.07;3.67;;;;;;;7.38;73.54;98824.25;4984651;28;20054;-84
2022/04/05 07:37:35;;;;;;;4.38;3.33;;;;;;;7.47;73.55;98820.50;5019937;28;20053;-84
2022/04/05 07:40:05;;;;;;;5.78;3.28;;;;;;;7.35;73.29;98806.19;5004352;28;20050;-83
2022/04/05 07:42:32;;;;;;;4.20;3.08;;;;;;;7.52;72.77;98823.41;5019518;28;20030;-81
2022/04/05 07:44:58;;;;;;;4.10;2.90;;;;;;;7.50;72.72;98831.63;5024396;28;20061;-77
2022/04/05 07:47:24;;;;;;;5.40;3.30;;;;;;;7.50;72.93;98820.28;5027250;28;20022;-79
2022/04/05 07:49:50;;;;;;;6.65;3.40;;;;;;;7.51;72.61;98838.06;5031743;28;20042;-84
2022/04/05 07:52:16;;;;;;;8.18;3.50;;;;;;;7.51;72.86;98823.91;5013527;28;20050;-78
2022/04/05 07:54:42;;;;;;;3.72;3.35;;;;;;;7.54;73.03;98835.03;5020656;28;20049;-81
2022/04/05 07:57:13;;;;;;;8.57;4.78;;;;;;;7.63;73.45;98849.06;5016293;28;20034;-82
2022/04/05 07:59:40;;;;;;;7.35;4.43;;;;;;;7.75;72.62;98845.09;5015656;28;20048;-78
2022/04/05 08:02:05;;;;;;;4.53;3.10;;;;;;;7.82;71.71;98844.69;5014682;28;20057;-80
2022/04/05 08:04:33;;;;;;;3.72;2.92;;;;;;;7.85;71.92;98857.06;5012034;28;20037;-83
2022/04/05 08:06:59;;;;;;;11.32;3.97;;;;;;;7.65;71.98;98831.56;5018135;28;20065;-83
2022/04/05 08:09:24;;;;;;;3.28;2.95;;;;;;;7.80;71.56;98852.09;4999575;28;20029;-83
2022/04/05 08:11:52;;;;;;;5.30;2.78;;;;;;;7.55;72.51;98833.75;5019005;28;20040;-86
2022/04/05 08:14:20;;;;;;;4.47;3.00;;;;;;;7.81;72.30;98874.28;5003231;28;20041;-87
2022/04/05 08:16:47;;;;;;;3.92;2.88;;;;;;;7.78;72.22;98866.00;5002261;28;20037;-79
2022/04/05 08:19:14;;;;;;;3.00;2.80;;;;;;;7.91;71.34;98860.75;5016472;28;20026;-79
2022/04/05 08:21:39;;;;;;;12.68;3.97;;;;;;;7.81;71.81;98862.97;5014954;28;20068;-78
2022/04/05 08:24:05;;;;;;;5.18;3.50;;;;;;;7.92;72.01;98882.16;5015090;28;20054;-80
2022/04/05 08:26:30;;;;;;;4.25;3.42;;;;;;;7.99;71.45;98884.56;5014614;28;20411;-80
2022/04/05 08:28:56;;;;;;;10.43;3.85;;;;;;;8.06;71.26;98891.88;5015753;28;20049;-80
2022/04/05 08:31:23;;;;;;;7.80;3.88;;;;;;;8.01;71.23;98875.56;4998753;28;20095;-79
2022/04/05 08:33:50;;;;;;;15.73;4.35;;;;;;;8.15;70.74;98892.50;5016474;28;20093;-81
2022/04/05 08:36:15;;;;;;;5.40;3.60;;;;;;;8.30;71.36;98892.44;5019028;28;20044;-80
2022/04/05 08:38:42;;;;;;;4.30;3.70;;;;;;;8.50;70.91;98894.47;5017934;28;20033;-79
2022/04/05 08:41:10;;;;;;;11.25;3.53;;;;;;;8.73;70.30;98889.81;5017620;28;20360;-78
2022/04/05 08:43:37;;;;;;;6.65;3.88;;;;;;;8.88;69.43;98899.00;5017652;28;20076;-82
2022/04/05 08:46:05;;;;;;;3.10;2.72;;;;;;;9.11;68.64;98889.38;5020866;28;20061;-79
2022/04/05 08:48:34;;;;;;;8.02;3.42;;;;;;;9.07;67.19;98891.69;5000595;28;20081;-80
2022/04/05 08:51:00;;;;;;;4.05;3.65;;;;;;;9.24;67.27;98894.66;5013907;28;20042;-84
2022/04/05 08:53:29;;;;;;;3.38;3.08;;;;;;;9.16;66.44;98900.03;5014273;28;20030;-78
2022/04/05 08:55:55;;;;;;;5.03;3.58;;;;;;;8.88;67.28;98922.47;4993226;28;20030;-80
2022/04/05 08:58:21;;;;;;;4.80;3.35;;;;;;;8.81;67.75;98905.13;4995128;28;20034;-78
2022/04/05 09:00:47;;;;;;;6.13;2.95;;;;;;;8.90;66.84;98919.13;4993932;28;20045;-79
2022/04/05 09:03:13;;;;;;;4.88;3.20;;;;;;;8.87;66.58;98923.78;4995908;28;20026;-79
2022/04/05 09:05:46;;;;;;;3.78;2.90;;;;;;;8.87;67.19;98920.94;4994498;28;20097;-80
2022/04/05 09:08:19;;;;;;;8.88;3.72;;;;;;;9.02;66.33;98932.16;5010235;28;20453;-81
2022/04/05 09:10:48;;;;;;;9.27;3.53;;;;;;;9.13;66.18;98922.97;5008978;28;20352;-79
2022/04/05 09:13:17;;;;;;;5.30;3.35;;;;;;;9.22;65.82;98934.16;5034137;28;20114;-78
2022/04/05 09:15:44;;;;;;;5.25;3.35;;;;;;;9.29;66.21;98914.56;5001273;28;20051;-80
2022/04/05 09:18:47;;;;;;;5.53;2.80;;;;;;;9.48;65.57;98923.50;5034893;28;20105;-79
2022/04/05 09:21:14;;;;;;;3.78;3.20;;;;;;;9.83;64.83;98931.75;5034187;28;20048;-78
2022/04/05 09:23:42;;;;;;;3.83;3.53;;;;;;;10.10;64.56;98938.88;5026641;28;20022;-80
2022/04/05 09:26:10;;;;;;;4.22;3.83;;;;;;;10.46;62.11;98925.88;4983679;28;20523;-81
2022/04/05 09:28:47;;;;;;;7.47;4.22;;;;;;;10.13;62.33;98955.72;5016341;28;20037;-78
2022/04/05 09:31:18;;;;;;;6.65;3.63;;;;;;;9.73;63.39;98950.28;5015669;28;20034;-79
2022/04/05 09:34:12;;;;;;;5.20;3.08;;;;;;;9.50;65.17;98953.00;4997889;28;20030;-77
2022/04/05 09:36:44;;;;;;;8.25;2.58;;;;;;;9.46;63.96;98943.13;4999139;28;20076;-82
2022/04/05 09:39:21;;;;;;;2.55;1.92;;;;;;;9.56;63.87;98941.66;5013927;28;20037;-79
2022/04/05 09:42:05;;;;;;;2.00;1.90;;;;;;;9.72;64.25;98948.75;4998647;28;20026;-78
2022/04/05 09:44:43;;;;;;;6.28;2.08;;;;;;;9.94;63.67;98949.66;5030178;28;20046;-80
2022/04/05 09:47:10;;;;;;;3.45;2.13;;;;;;;10.01;63.31;98959.03;5009346;28;20030;-79
2022/04/05 09:49:46;;;;;;;1.90;1.48;;;;;;;10.26;61.23;98941.81;5022664;28;20057;-79
2022/04/05 09:52:39;;;;;;;2.10;1.30;;;;;;;10.27;61.19;98949.09;5012840;28;20075;-79
2022/04/05 09:55:16;;;;;;;3.15;2.10;;;;;;;10.75;60.39;98934.78;5014429;28;20037;-78
2022/04/05 09:57:42;;;;;;;2.05;1.13;;;;;;;11.17;58.63;98921.63;5013664;28;20081;-79
2022/04/05 10:00:16;;;;;;;2.92;1.30;;;;;;;11.63;56.76;98926.81;5014312;28;20026;-79
2022/04/05 10:03:04;;;;;;;0.85;0.85;;;;;;;11.82;55.72;98933.53;5009563;28;20133;-81
2022/04/05 10:05:33;;;;;;;3.03;1.20;;;;;;;11.75;54.66;98928.34;5014046;28;20129;-80
2022/04/05 10:07:59;;;;;;;3.25;0.98;;;;;;;11.84;53.88;98924.47;5011810;28;20066;-77
2022/04/05 10:10:26;;;;;;;3.38;1.30;;;;;;;11.55;55.30;98942.88;5013823;28;20466;-78
2022/04/05 10:12:52;;;;;;;2.00;0.90;;;;;;;11.53;55.17;98932.00;4997848;28;20141;-78
2022/04/05 10:15:21;;;;;;;3.92;1.40;;;;;;;11.77;54.34;98930.69;5017551;28;20113;-76
2022/04/05 10:17:48;;;;;;;3.78;1.00;;;;;;;11.70;53.99;98937.66;5000814;28;20463;-77
2022/04/05 10:20:29;;;;;;;4.95;1.80;;;;;;;11.55;54.80;98948.56;5018866;28;20026;-77
2022/04/05 10:22:57;;;;;;;5.35;1.52;;;;;;;11.53;53.39;98946.25;5017265;28;20044;-78
2022/04/05 10:25:23;;;;;;;3.10;1.30;;;;;;;11.49;54.21;98945.75;5030490;28;20044;-78
2022/04/05 10:27:57;;;;;;;2.90;1.30;;;;;;;11.56;53.05;98953.75;5031592;28;20030;-79
2022/04/05 10:30:41;;;;;;;7.80;1.50;;;;;;;11.52;54.18;98961.03;5020626;28;20037;-79
2022/04/05 10:33:19;;;;;;;4.90;1.50;;;;;;;11.75;54.29;98953.25;5016518;28;20042;-76
2022/04/05 10:35:57;;;;;;;6.78;1.98;;;;;;;12.00;53.42;98950.09;5024376;28;20463;-80
2022/04/05 10:38:24;;;;;;;6.15;1.75;;;;;;;12.25;53.11;98956.00;5030257;28;20021;-80
2022/04/05 10:41:12;;;;;;;2.03;1.48;;;;;;;12.73;51.74;98952.72;4997878;28;20033;-79
2022/04/05 10:43:39;;;;;;;3.63;1.45;;;;;;;12.94;51.65;98946.06;5042373;28;20025;-81
2022/04/05 10:46:05;;;;;;;2.60;1.13;;;;;;;13.48;49.77;98939.75;5040013;28;20029;-80
2022/04/05 10:48:31;;;;;;;2.75;1.38;;;;;;;13.32;49.36;98938.56;5027402;28;20053;-81
2022/04/05 10:51:05;;;;;;;8.07;1.95;;;;;;;13.11;48.33;98959.50;5036449;28;20026;-80
2022/04/05 10:53:41;;;;;;;6.63;1.83;;;;;;;12.89;49.96;98954.69;5036733;28;20034;-80
2022/04/05 10:56:10;;;;;;;6.13;1.90;;;;;;;12.93;51.00;98960.88;5027206;28;20034;-81
2022/04/05 10:58:38;;;;;;;5.13;1.70;;;;;;;12.99;50.21;98968.13;5019791;28;20104;-81
2022/04/05 11:01:22;;;;;;;3.90;1.55;;;;;;;13.05;48.76;98959.53;5001248;28;20434;-79
2022/04/05 11:04:20;;;;;;;2.13;1.67;;;;;;;12.76;50.47;98960.22;5016732;28;20034;-80
2022/04/05 11:07:10;;;;;;;4.25;2.35;;;;;;;12.86;50.38;98970.03;5016615;28;20021;-81
2022/04/05 11:09:50;;;;;;;3.38;1.80;;;;;;;12.98;49.82;98972.28;5017509;28;20041;-80
2022/04/05 11:12:25;;;;;;;7.75;1.98;;;;;;;12.96;49.44;98977.78;5015768;28;20577;-79
2022/04/05 11:14:59;;;;;;;7.35;2.78;;;;;;;13.18;47.87;98956.09;5016984;28;20068;-80
2022/04/05 11:17:27;;;;;;;8.73;1.88;;;;;;;13.00;49.03;98977.50;5015589;28;20030;-78
2022/04/05 11:19:57;;;;;;;12.48;2.45;;;;;;;13.01;49.77;98961.91;4983517;28;20431;-79
2022/04/05 11:22:23;;;;;;;2.78;1.70;;;;;;;13.31;49.23;98977.06;4998676;28;20026;-78
2022/04/05 11:24:57;;;;;;;4.88;2.95;;;;;;;13.57;47.53;98990.91;5013897;28;20107;-79
2022/04/05 11:27:30;;;;;;;4.35;1.77;;;;;;;13.86;46.50;98992.25;5016170;28;20168;-79
2022/04/05 11:30:23;;;;;;;1.77;1.67;;;;;;;13.71;46.98;98986.13;5015925;28;20030;-79
2022/04/05 11:33:12;;;;;;;5.82;1.42;;;;;;;13.65;45.96;98988.25;5015243;28;20029;-79
2022/04/05 11:35:38;;;;;;;5.20;1.90;;;;;;;13.34;47.58;98981.72;5016673;28;20523;-80
2022/04/05 11:38:18;;;;;;;5.25;2.17;;;;;;;13.07;48.44;98999.81;5015809;28;20073;-81
2022/04/05 11:40:50;;;;;;;7.07;1.98;;;;;;;12.92;48.58;98973.66;5015668;28;20032;-77
2022/04/05 11:43:30;;;;;;;23.95;3.63;;;;;;;12.90;48.42;98988.47;5014860;28;20053;-80
2022/04/05 11:46:04;;;;;;;6.00;3.00;;;;;;;13.04;48.67;98982.91;5000026;28;20022;-79
2022/04/05 11:48:30;;;;;;;6.28;2.08;;;;;;;12.85;48.07;98983.53;5005294;28;20057;-78